Time;durP1;ratioP1;P1;durP2;ratioP2;P2;SDS_P1;SDS_P2;PMS_P1;PMS_P2;Temp;Humidity;BMP_temperature;BMP_pressure;BME280_temperature;BME280_humidity;BME280_pressure;Samples;Min_cycle;Max_cycle;Signal;HPM_P1;HPM_P2
2024/04/02 00:00:34;;;;;;;2.72;0.90;;;;;;;8.12;100.00;99943.13;5027615;28;20044;-74
2024/04/02 00:03:00;;;;;;;2.70;0.95;;;;;;;8.26;100.00;99952.00;5014259;28;20171;-74
2024/04/02 00:05:26;;;;;;;3.42;0.80;;;;;;;8.19;100.00;99949.25;5026845;28;20509;-75
2024/04/02 00:07:51;;;;;;;5.60;0.88;;;;;;;8.27;100.00;99951.84;5032303;28;20033;-74
2024/04/02 00:10:17;;;;;;;1.65;0.63;;;;;;;8.20;100.00;99961.22;5040506;28;20538;-74
2024/04/02 00:12:42;;;;;;;6.50;1.23;;;;;;;8.12;100.00;99958.63;5037392;28;20033;-75
2024/04/02 00:15:08;;;;;;;1.92;0.60;;;;;;;8.08;100.00;99960.72;5012173;28;20069;-74
2024/04/02 00:17:33;;;;;;;2.30;0.90;;;;;;;8.06;100.00;99972.16;5022142;28;20029;-75
2024/04/02 00:20:04;;;;;;;5.13;0.60;;;;;;;8.06;100.00;99964.41;5029647;28;20041;-75
2024/04/02 00:22:30;;;;;;;6.93;1.10;;;;;;;7.99;100.00;99959.09;5025410;28;20034;-74
2024/04/02 00:24:55;;;;;;;3.40;0.77;;;;;;;8.09;100.00;99959.75;5027143;28;20057;-75
2024/04/02 00:27:21;;;;;;;2.95;0.60;;;;;;;8.05;100.00;99962.81;5036349;28;20102;-74
2024/04/02 00:29:46;;;;;;;2.45;0.70;;;;;;;8.02;100.00;99960.53;5012595;28;20037;-74
2024/04/02 00:32:11;;;;;;;6.30;1.88;;;;;;;7.94;100.00;99969.88;5030442;28;20017;-74
2024/04/02 00:34:42;;;;;;;4.65;0.77;;;;;;;8.08;100.00;99967.63;5025161;28;20676;-74
2024/04/02 00:37:08;;;;;;;1.50;0.63;;;;;;;8.01;100.00;99962.31;5033222;28;20095;-75
2024/04/02 00:39:36;;;;;;;6.25;0.88;;;;;;;7.94;100.00;99963.91;5028892;28;20487;-75
2024/04/02 00:42:02;;;;;;;4.28;0.80;;;;;;;8.06;100.00;99964.41;5033633;28;20115;-75
2024/04/02 00:44:28;;;;;;;6.43;0.93;;;;;;;7.95;100.00;99968.94;5029093;28;20037;-74
2024/04/02 00:46:53;;;;;;;1.63;0.57;;;;;;;7.98;100.00;99954.88;5034726;28;20055;-75
2024/04/02 00:49:19;;;;;;;2.95;0.75;;;;;;;7.90;100.00;99971.19;5031296;28;20131;-74
2024/04/02 00:51:45;;;;;;;4.60;0.90;;;;;;;7.97;100.00;99972.16;5013567;28;20067;-74
2024/04/02 00:54:11;;;;;;;4.22;0.90;;;;;;;7.93;100.00;99975.19;5031174;28;20044;-73
2024/04/02 00:56:37;;;;;;;4.32;0.60;;;;;;;8.01;100.00;99974.44;5013128;28;20041;-74
2024/04/02 00:59:04;;;;;;;5.57;0.65;;;;;;;7.96;100.00;99977.47;5030417;28;20033;-74
2024/04/02 01:01:29;;;;;;;1.95;0.57;;;;;;;8.02;100.00;99979.41;5029692;28;20037;-74
2024/04/02 01:03:55;;;;;;;3.85;1.00;;;;;;;7.88;100.00;99988.59;5038083;28;20084;-75
2024/04/02 01:06:20;;;;;;;4.78;0.80;;;;;;;7.91;100.00;99993.47;5029267;28;20037;-74
2024/04/02 01:08:46;;;;;;;5.65;0.93;;;;;;;7.83;100.00;99988.25;5023856;28;20620;-74
2024/04/02 01:11:12;;;;;;;4.47;1.55;;;;;;;7.96;100.00;100001.50;5006579;28;20026;-74
2024/04/02 01:13:38;;;;;;;4.80;1.10;;;;;;;7.97;100.00;100003.13;5025927;28;20033;-74
2024/04/02 01:16:04;;;;;;;5.30;0.88;;;;;;;7.88;100.00;100008.44;5021151;28;20156;-74
2024/04/02 01:18:29;;;;;;;7.10;0.70;;;;;;;7.89;100.00;100003.13;5036148;28;20373;-74
2024/04/02 01:20:55;;;;;;;3.05;0.98;;;;;;;7.89;100.00;100008.28;5036351;28;20171;-74
2024/04/02 01:23:22;;;;;;;3.33;0.70;;;;;;;7.91;100.00;100013.28;5027732;28;20520;-74
2024/04/02 01:25:47;;;;;;;1.90;1.13;;;;;;;7.89;100.00;100013.47;5035878;28;20040;-74
2024/04/02 01:28:13;;;;;;;3.97;1.85;;;;;;;7.87;100.00;100012.78;5033761;28;20419;-74
2024/04/02 01:30:38;;;;;;;4.18;1.15;;;;;;;7.96;100.00;100013.63;5024920;28;20042;-74
2024/04/02 01:33:04;;;;;;;2.45;0.73;;;;;;;8.07;100.00;100020.25;5028931;28;20025;-74
2024/04/02 01:35:29;;;;;;;6.70;0.93;;;;;;;8.11;100.00;100024.94;5021626;28;20096;-75
2024/04/02 01:37:54;;;;;;;2.92;0.70;;;;;;;8.11;100.00;100017.19;5031188;28;20094;-74
2024/04/02 01:40:20;;;;;;;7.00;0.90;;;;;;;8.17;100.00;100028.66;5025763;28;20500;-74
2024/04/02 01:42:45;;;;;;;3.88;0.80;;;;;;;8.06;100.00;100036.72;5012941;28;20042;-75
2024/04/02 01:45:11;;;;;;;2.80;0.68;;;;;;;8.14;100.00;100031.59;5030146;28;20049;-73
2024/04/02 01:47:36;;;;;;;1.90;0.70;;;;;;;7.95;100.00;100030.09;5030850;28;20022;-74
2024/04/02 01:50:02;;;;;;;12.63;0.80;;;;;;;7.89;100.00;100028.94;5027256;28;20041;-73
2024/04/02 01:52:27;;;;;;;4.35;0.77;;;;;;;7.98;100.00;100022.81;5032038;28;20041;-74
2024/04/02 01:54:52;;;;;;;3.17;0.85;;;;;;;7.92;100.00;100028.63;5029226;28;20408;-74
2024/04/02 01:57:18;;;;;;;4.82;1.10;;;;;;;7.89;100.00;100031.53;5033420;28;20094;-74
2024/04/02 01:59:43;;;;;;;4.97;1.20;;;;;;;7.99;100.00;100027.03;5023433;28;20023;-73
2024/04/02 02:02:09;;;;;;;2.05;0.60;;;;;;;7.92;100.00;100027.81;5034934;28;20631;-74
2024/04/02 02:04:34;;;;;;;5.70;1.23;;;;;;;7.96;100.00;100037.66;5030466;28;20103;-74
2024/04/02 02:07:00;;;;;;;3.40;0.90;;;;;;;7.89;100.00;100035.84;5028916;28;20681;-74
2024/04/02 02:09:25;;;;;;;3.60;0.93;;;;;;;7.90;100.00;100030.53;5025983;28;20030;-74
2024/04/02 02:11:51;;;;;;;6.13;1.02;;;;;;;8.13;100.00;100037.69;5032100;28;20025;-75
2024/04/02 02:14:16;;;;;;;3.47;1.00;;;;;;;8.16;100.00;100037.41;5031422;28;20045;-74
2024/04/02 02:16:42;;;;;;;2.63;0.80;;;;;;;8.09;100.00;100044.97;5031461;28;20037;-73
2024/04/02 02:19:07;;;;;;;4.40;0.90;;;;;;;8.06;100.00;100041.88;5008359;28;20044;-74
2024/04/02 02:21:33;;;;;;;6.93;1.15;;;;;;;8.01;100.00;100044.94;5028715;28;20045;-75
2024/04/02 02:23:58;;;;;;;1.20;0.63;;;;;;;8.03;100.00;100048.19;5013623;28;20407;-74
2024/04/02 02:26:24;;;;;;;3.10;0.77;;;;;;;7.93;100.00;100047.47;5026665;28;20412;-73
2024/04/02 02:28:49;;;;;;;3.28;0.80;;;;;;;7.91;100.00;100041.66;5028328;28;20033;-74
2024/04/02 02:31:15;;;;;;;3.35;0.70;;;;;;;7.87;100.00;100048.91;5034867;28;20048;-74
2024/04/02 02:33:41;;;;;;;4.03;0.80;;;;;;;7.97;100.00;100048.81;5031584;28;20036;-76
2024/04/02 02:36:07;;;;;;;4.50;0.93;;;;;;;7.93;100.00;100037.16;5032086;28;20049;-74
2024/04/02 02:38:32;;;;;;;4.03;0.82;;;;;;;7.91;100.00;100052.00;5009343;28;20033;-74
2024/04/02 02:40:59;;;;;;;5.00;0.98;;;;;;;7.88;100.00;100044.59;5025612;28;20040;-73
2024/04/02 02:43:24;;;;;;;4.15;0.90;;;;;;;7.84;100.00;100051.84;5025634;28;20104;-74
2024/04/02 02:45:50;;;;;;;2.92;0.75;;;;;;;7.75;100.00;100055.34;5022545;28;20488;-74
2024/04/02 02:48:16;;;;;;;7.43;1.20;;;;;;;7.83;100.00;100049.41;5030426;28;20056;-73
2024/04/02 02:50:42;;;;;;;5.32;1.10;;;;;;;7.73;100.00;100060.66;5031440;28;20030;-73
2024/04/02 02:53:08;;;;;;;4.47;0.80;;;;;;;7.71;100.00;100057.44;5032317;28;20044;-74
2024/04/02 02:55:33;;;;;;;5.63;0.90;;;;;;;7.78;100.00;100052.47;5018131;28;20467;-74
2024/04/02 02:57:58;;;;;;;3.72;0.90;;;;;;;7.86;100.00;100059.44;5028474;28;20033;-74
2024/04/02 03:00:24;;;;;;;5.45;1.02;;;;;;;7.78;100.00;100062.78;5031131;28;20048;-74
2024/04/02 03:02:49;;;;;;;3.47;0.80;;;;;;;7.74;100.00;100051.97;5023119;28;20025;-74
2024/04/02 03:05:15;;;;;;;2.15;1.30;;;;;;;7.68;100.00;100060.31;5029552;28;20041;-74
2024/04/02 03:07:41;;;;;;;4.55;1.58;;;;;;;7.66;100.00;100074.34;5018708;28;20045;-74
2024/04/02 03:10:06;;;;;;;4.45;1.10;;;;;;;7.68;100.00;100075.00;5019043;28;20038;-74
2024/04/02 03:12:32;;;;;;;5.10;0.95;;;;;;;7.62;100.00;100083.34;5030332;28;20064;-74
2024/04/02 03:14:57;;;;;;;5.93;0.98;;;;;;;7.52;100.00;100075.72;5031575;28;20060;-74
2024/04/02 03:17:23;;;;;;;5.28;1.35;;;;;;;7.49;100.00;100078.59;5035227;28;20064;-74
2024/04/02 03:19:48;;;;;;;4.38;1.00;;;;;;;7.39;100.00;100076.94;5024773;28;20853;-75
2024/04/02 03:22:14;;;;;;;5.53;1.00;;;;;;;7.46;100.00;100078.91;5030489;28;20044;-74
2024/04/02 03:24:39;;;;;;;5.40;1.85;;;;;;;7.56;100.00;100079.63;5031307;28;20034;-74
2024/04/02 03:27:06;;;;;;;7.43;1.20;;;;;;;7.45;100.00;100088.41;5035594;28;20082;-74
2024/04/02 03:29:32;;;;;;;6.45;1.30;;;;;;;7.45;100.00;100090.19;5028716;28;20098;-74
2024/04/02 03:31:57;;;;;;;3.80;1.38;;;;;;;7.45;100.00;100088.41;5015027;28;20022;-75
2024/04/02 03:34:25;;;;;;;2.10;0.93;;;;;;;7.42;100.00;100088.72;5012885;28;20027;-74
2024/04/02 03:36:51;;;;;;;6.68;1.17;;;;;;;7.37;100.00;100094.34;5032071;28;20037;-73
2024/04/02 03:39:16;;;;;;;4.72;1.13;;;;;;;7.41;100.00;100090.50;5013946;28;21359;-74
2024/04/02 03:41:42;;;;;;;4.55;1.30;;;;;;;7.30;100.00;100093.31;5032831;28;20041;-74
2024/04/02 03:44:07;;;;;;;5.03;0.80;;;;;;;7.39;100.00;100102.72;5037043;28;20037;-74
2024/04/02 03:46:33;;;;;;;3.83;1.00;;;;;;;7.35;100.00;100110.94;5027645;28;20034;-74
2024/04/02 03:48:58;;;;;;;5.78;1.10;;;;;;;7.29;100.00;100109.78;5035258;28;20536;-75
2024/04/02 03:51:24;;;;;;;4.90;0.90;;;;;;;7.22;100.00;100112.13;5035792;28;20036;-74
2024/04/02 03:53:49;;;;;;;3.10;1.13;;;;;;;7.28;100.00;100113.31;5030346;28;20033;-74
2024/04/02 03:56:16;;;;;;;4.55;1.35;;;;;;;7.29;100.00;100109.78;5024981;28;20041;-74
2024/04/02 03:58:41;;;;;;;7.03;1.55;;;;;;;7.32;100.00;100108.66;5024011;28;20041;-74
2024/04/02 04:01:10;;;;;;;7.72;2.40;;;;;;;7.50;100.00;100103.47;5022716;28;20042;-74
2024/04/02 04:03:35;;;;;;;6.68;1.60;;;;;;;7.38;100.00;100108.03;5029386;28;20095;-74
2024/04/02 04:06:02;;;;;;;3.42;1.38;;;;;;;7.31;100.00;100112.19;5042473;28;20041;-74
2024/04/02 04:08:30;;;;;;;6.68;1.73;;;;;;;7.32;100.00;100118.97;5032071;28;21671;-74
2024/04/02 04:10:55;;;;;;;8.07;1.58;;;;;;;7.36;100.00;100120.28;5034566;28;20035;-74
2024/04/02 04:13:21;;;;;;;5.35;1.50;;;;;;;7.40;100.00;100114.69;5032533;28;20404;-74
2024/04/02 04:15:55;;;;;;;5.55;1.40;;;;;;;7.57;100.00;100118.16;5035715;28;20029;-74
2024/04/02 04:18:21;;;;;;;4.70;1.40;;;;;;;7.51;100.00;100128.28;5027825;28;20041;-75
2024/04/02 04:20:54;;;;;;;7.10;1.58;;;;;;;7.50;100.00;100129.25;5030348;28;20037;-74
2024/04/02 04:23:19;;;;;;;;;;;;;;;7.64;100.00;100128.66;5031325;28;20640;-74
2024/04/02 04:25:45;;;;;;;4.30;1.08;;;;;;;7.65;100.00;100134.63;5033716;28;19971;-75
2024/04/02 04:28:10;;;;;;;6.10;1.70;;;;;;;7.66;100.00;100131.09;5030836;28;20262;-74
2024/04/02 04:30:36;;;;;;;9.43;1.70;;;;;;;7.78;100.00;100140.22;5036587;28;20087;-75
2024/04/02 04:33:02;;;;;;;6.65;1.42;;;;;;;7.67;100.00;100146.44;5032169;28;20037;-74
2024/04/02 04:35:27;;;;;;;7.07;1.60;;;;;;;7.76;100.00;100142.13;5027969;28;20033;-74
2024/04/02 04:37:53;;;;;;;7.50;1.40;;;;;;;7.70;100.00;100142.72;5034425;28;20499;-74
2024/04/02 04:40:18;;;;;;;4.80;1.27;;;;;;;7.71;100.00;100145.16;5022774;28;20484;-75
2024/04/02 04:42:43;;;;;;;5.72;1.05;;;;;;;7.91;100.00;100147.50;5035969;28;20396;-74
2024/04/02 04:45:09;;;;;;;5.55;1.33;;;;;;;7.78;100.00;100145.38;5017426;28;20076;-75
2024/04/02 04:47:35;;;;;;;4.97;1.42;;;;;;;7.85;100.00;100148.13;5030820;28;20123;-74
2024/04/02 04:50:01;;;;;;;7.32;1.00;;;;;;;7.85;100.00;100153.31;5027034;28;20033;-74
2024/04/02 04:52:26;;;;;;;9.05;1.38;;;;;;;7.86;100.00;100149.78;5025305;28;20510;-74
2024/04/02 04:54:52;;;;;;;6.70;1.50;;;;;;;7.93;100.00;100155.91;5035884;28;20037;-74
2024/04/02 04:57:17;;;;;;;6.72;1.73;;;;;;;7.93;100.00;100159.31;5036035;28;20036;-75
2024/04/02 04:59:43;;;;;;;6.00;1.45;;;;;;;7.92;100.00;100156.88;5029820;28;20492;-75
2024/04/02 05:02:08;;;;;;;5.57;1.10;;;;;;;8.08;100.00;100158.72;5019372;28;20469;-75
2024/04/02 05:04:34;;;;;;;7.00;1.20;;;;;;;8.09;100.00;100161.16;5025512;28;20080;-75
2024/04/02 05:06:59;;;;;;;5.75;1.20;;;;;;;8.14;100.00;100160.72;5019312;28;20032;-74
2024/04/02 05:09:25;;;;;;;6.95;1.45;;;;;;;8.27;100.00;100168.81;5030873;28;20052;-74
2024/04/02 05:11:50;;;;;;;9.38;1.80;;;;;;;8.27;100.00;100173.16;5033210;28;20041;-74
2024/04/02 05:14:16;;;;;;;7.70;1.50;;;;;;;8.22;100.00;100173.63;5027772;28;20083;-75
2024/04/02 05:16:42;;;;;;;6.63;1.25;;;;;;;8.28;100.00;100173.00;5030906;28;20048;-76
2024/04/02 05:19:08;;;;;;;8.02;1.80;;;;;;;8.21;100.00;100173.78;5027249;28;20039;-74
2024/04/02 05:21:33;;;;;;;6.78;1.20;;;;;;;8.34;100.00;100187.06;5037073;28;20038;-74
2024/04/02 05:23:58;;;;;;;2.03;0.95;;;;;;;8.30;100.00;100188.34;5029114;28;20030;-75
2024/04/02 05:26:24;;;;;;;10.80;1.30;;;;;;;8.34;100.00;100193.06;5022592;28;20033;-75
2024/04/02 05:28:49;;;;;;;7.47;1.73;;;;;;;8.36;100.00;100188.56;5027917;28;20384;-74
2024/04/02 05:31:16;;;;;;;11.50;1.50;;;;;;;8.35;100.00;100189.50;5025421;28;20034;-75
2024/04/02 05:33:42;;;;;;;7.78;1.30;;;;;;;8.35;100.00;100192.09;5011921;28;20099;-74
2024/04/02 05:36:08;;;;;;;8.77;1.25;;;;;;;8.38;100.00;100196.13;5024916;28;20433;-74
2024/04/02 05:38:33;;;;;;;7.97;1.30;;;;;;;8.37;100.00;100197.91;5022174;28;20059;-75
2024/04/02 05:40:59;;;;;;;11.43;1.50;;;;;;;8.37;100.00;100205.66;5039603;28;20049;-74
2024/04/02 05:43:26;;;;;;;6.80;1.38;;;;;;;8.49;100.00;100208.00;5010867;28;20030;-75
2024/04/02 05:45:52;;;;;;;10.73;1.50;;;;;;;8.47;100.00;100205.56;5033858;28;20660;-75
2024/04/02 05:48:18;;;;;;;6.00;1.60;;;;;;;8.50;100.00;100215.59;5028725;28;20109;-74
2024/04/02 05:50:52;;;;;;;9.40;1.60;;;;;;;8.51;100.00;100216.41;5029932;28;20035;-75
2024/04/02 05:53:18;;;;;;;6.30;1.33;;;;;;;8.50;100.00;100225.13;5030545;28;20026;-74
2024/04/02 05:55:43;;;;;;;5.60;1.30;;;;;;;8.49;100.00;100223.50;5024018;28;20033;-75
2024/04/02 05:58:08;;;;;;;5.95;1.63;;;;;;;8.50;100.00;100219.97;5019962;28;20047;-74
2024/04/02 06:00:34;;;;;;;6.03;2.10;;;;;;;8.50;100.00;100225.94;5034364;28;20041;-74
2024/04/02 06:03:00;;;;;;;15.10;2.60;;;;;;;8.63;100.00;100229.88;5017638;28;20037;-74
2024/04/02 06:05:25;;;;;;;8.40;2.05;;;;;;;8.68;100.00;100222.44;5028739;28;20041;-73
2024/04/02 06:07:55;;;;;;;13.63;1.92;;;;;;;8.63;100.00;100227.28;5023629;28;20053;-74
2024/04/02 06:10:20;;;;;;;8.43;1.42;;;;;;;8.69;100.00;100227.44;5024458;28;20041;-74
2024/04/02 06:12:46;;;;;;;10.45;2.35;;;;;;;8.68;100.00;100233.59;5027214;28;20590;-75
2024/04/02 06:15:11;;;;;;;18.73;3.83;;;;;;;8.71;100.00;100237.63;5045533;28;20064;-76
2024/04/02 06:17:36;;;;;;;13.70;2.13;;;;;;;8.81;100.00;100238.28;5026821;28;20400;-74
2024/04/02 06:20:02;;;;;;;13.23;1.60;;;;;;;8.76;100.00;100238.78;5027505;28;20049;-75
2024/04/02 06:22:28;;;;;;;11.75;1.83;;;;;;;8.89;100.00;100234.91;5022829;28;20037;-74
2024/04/02 06:24:54;;;;;;;12.48;2.15;;;;;;;8.83;100.00;100238.13;5035009;28;20033;-75
2024/04/02 06:27:19;;;;;;;8.27;1.40;;;;;;;8.87;100.00;100242.00;5035056;28;20125;-75
2024/04/02 06:29:45;;;;;;;13.18;1.70;;;;;;;8.84;100.00;100244.94;5026728;28;20045;-75
2024/04/02 06:32:10;;;;;;;9.63;1.50;;;;;;;8.76;100.00;100245.72;5011884;28;20025;-75
2024/04/02 06:34:35;;;;;;;7.55;2.05;;;;;;;8.75;100.00;100244.09;5032009;28;20059;-75
2024/04/02 06:37:01;;;;;;;9.52;1.83;;;;;;;8.79;100.00;100242.81;5025375;28;20028;-74
2024/04/02 06:39:26;;;;;;;14.35;2.75;;;;;;;8.90;100.00;100247.69;5033782;28;20432;-74
2024/04/02 06:41:52;;;;;;;6.72;1.40;;;;;;;8.98;100.00;100252.06;5027131;28;20501;-75
2024/04/02 06:44:17;;;;;;;11.68;3.40;;;;;;;9.02;100.00;100252.56;5034001;28;20044;-74
2024/04/02 06:46:43;;;;;;;11.70;2.35;;;;;;;9.01;100.00;100250.97;5038013;28;20034;-74
2024/04/02 06:49:08;;;;;;;11.50;1.88;;;;;;;9.26;100.00;100251.78;5028599;28;20028;-75
2024/04/02 06:51:33;;;;;;;8.35;1.52;;;;;;;9.20;100.00;100242.09;5030397;28;20041;-75
2024/04/02 06:53:59;;;;;;;9.82;1.60;;;;;;;9.21;100.00;100241.09;5029428;28;20399;-75
2024/04/02 06:56:25;;;;;;;10.70;1.70;;;;;;;9.29;100.00;100251.47;5014199;28;20090;-75
2024/04/02 06:58:50;;;;;;;9.10;1.90;;;;;;;9.27;100.00;100251.63;5025013;28;20033;-75
2024/04/02 07:01:16;;;;;;;10.07;1.85;;;;;;;9.29;100.00;100259.25;5027512;28;20053;-75
2024/04/02 07:03:42;;;;;;;15.27;1.80;;;;;;;9.32;100.00;100261.47;5026197;28;20488;-74
2024/04/02 07:06:08;;;;;;;12.57;1.50;;;;;;;9.40;100.00;100261.50;5025052;28;20047;-75
2024/04/02 07:08:33;;;;;;;9.45;1.40;;;;;;;9.50;100.00;100271.69;5020234;28;20029;-75
2024/04/02 07:11:04;;;;;;;9.25;1.80;;;;;;;9.47;100.00;100270.22;5033767;28;20392;-75
2024/04/02 07:13:30;;;;;;;8.88;1.63;;;;;;;9.41;100.00;100277.84;5009475;28;20045;-75
2024/04/02 07:15:56;;;;;;;9.32;1.65;;;;;;;9.28;100.00;100271.34;5022570;28;20091;-74
2024/04/02 07:18:21;;;;;;;11.63;1.83;;;;;;;9.33;100.00;100276.84;5026977;28;20037;-74
2024/04/02 07:21:00;;;;;;;15.90;2.70;;;;;;;9.49;100.00;100289.00;5026598;28;20108;-74
2024/04/02 07:23:27;;;;;;;10.25;1.92;;;;;;;9.52;98.86;100282.69;5028264;28;20139;-75
2024/04/02 07:25:53;;;;;;;7.80;1.40;;;;;;;9.46;98.45;100289.31;5024408;28;20124;-74
2024/04/02 07:28:22;;;;;;;11.82;1.52;;;;;;;9.47;98.20;100295.31;5032525;28;20026;-75
2024/04/02 07:30:49;;;;;;;9.88;1.40;;;;;;;9.41;97.24;100299.34;5022423;28;20034;-74
2024/04/02 07:33:15;;;;;;;12.75;2.47;;;;;;;9.45;97.65;100295.47;5029901;28;20029;-74
2024/04/02 07:35:42;;;;;;;13.40;1.60;;;;;;;9.52;96.20;100308.56;5025686;28;20033;-74
2024/04/02 07:38:11;;;;;;;9.10;1.63;;;;;;;9.50;96.26;100306.16;5020021;28;20037;-75
2024/04/02 07:40:37;;;;;;;12.52;1.65;;;;;;;9.49;94.26;100307.13;5028640;28;20452;-75
2024/04/02 07:43:03;;;;;;;14.70;1.80;;;;;;;9.56;94.25;100304.69;5028336;28;20029;-75
2024/04/02 07:45:29;;;;;;;12.10;1.92;;;;;;;9.65;93.59;100318.47;5022380;28;20094;-74
2024/04/02 07:47:54;;;;;;;11.88;2.05;;;;;;;9.57;91.39;100311.50;5028450;28;20033;-75
2024/04/02 07:50:20;;;;;;;10.93;1.42;;;;;;;9.57;92.59;100316.69;5008437;28;20405;-76
2024/04/02 07:52:46;;;;;;;12.65;1.80;;;;;;;9.61;92.04;100312.78;5030113;28;20036;-75
2024/04/02 07:55:11;;;;;;;12.18;1.83;;;;;;;9.71;91.13;100317.81;5031278;28;20065;-74
2024/04/02 07:57:37;;;;;;;14.55;1.90;;;;;;;9.80;90.42;100321.22;5004908;28;20044;-75
2024/04/02 08:00:03;;;;;;;14.43;2.33;;;;;;;9.82;90.62;100311.50;5020754;28;20042;-74
2024/04/02 08:02:31;;;;;;;12.77;1.73;;;;;;;9.90;90.08;100324.44;5028119;28;20492;-74
2024/04/02 08:04:57;;;;;;;10.00;1.73;;;;;;;9.87;89.83;100323.00;5021175;28;20048;-74
2024/04/02 08:07:22;;;;;;;13.18;2.83;;;;;;;9.90;90.11;100327.03;5021427;28;20076;-75
2024/04/02 08:09:48;;;;;;;8.75;1.58;;;;;;;9.97;88.54;100322.00;5030755;28;20029;-75
2024/04/02 08:12:13;;;;;;;12.18;1.52;;;;;;;9.86;89.25;100330.91;5026216;28;20476;-75
2024/04/02 08:14:39;;;;;;;15.25;3.28;;;;;;;9.87;88.87;100330.75;5025750;28;21279;-75
2024/04/02 08:17:05;;;;;;;12.15;2.70;;;;;;;9.95;89.25;100329.94;5034180;28;20068;-75
2024/04/02 08:19:30;;;;;;;14.75;1.58;;;;;;;10.00;89.18;100337.22;5032628;28;20029;-75
2024/04/02 08:21:56;;;;;;;8.30;1.92;;;;;;;10.09;88.37;100331.06;5044929;28;20424;-75
2024/04/02 08:24:24;;;;;;;10.25;1.83;;;;;;;10.18;87.61;100337.03;5028248;28;21017;-75
2024/04/02 08:26:49;;;;;;;8.65;1.42;;;;;;;10.26;88.01;100340.41;5027741;28;20037;-75
2024/04/02 08:29:15;;;;;;;9.57;1.40;;;;;;;10.29;86.64;100337.50;5033113;28;20384;-74
2024/04/02 08:31:40;;;;;;;9.48;1.45;;;;;;;10.31;86.93;100343.34;5035849;28;20026;-75
2024/04/02 08:34:06;;;;;;;5.68;1.30;;;;;;;10.42;87.21;100338.81;5040508;28;20473;-75
2024/04/02 08:36:31;;;;;;;9.52;1.13;;;;;;;10.55;87.14;100333.06;5025283;28;20061;-75
2024/04/02 08:38:56;;;;;;;8.23;1.65;;;;;;;10.51;85.22;100330.03;5026625;28;20408;-75
2024/04/02 08:41:26;;;;;;;7.30;1.60;;;;;;;10.60;85.29;100339.38;5015379;28;20048;-76
2024/04/02 08:43:57;;;;;;;7.90;1.58;;;;;;;10.82;84.62;100342.25;5019749;28;20033;-76
2024/04/02 08:46:26;;;;;;;13.82;1.88;;;;;;;10.87;83.85;100345.16;5011981;28;20050;-76
2024/04/02 08:48:52;;;;;;;8.77;1.10;;;;;;;11.21;84.22;100334.44;5031738;28;20037;-75
2024/04/02 08:51:19;;;;;;;13.13;1.13;;;;;;;11.23;82.53;100355.81;5029375;28;20174;-74
2024/04/02 08:53:45;;;;;;;15.23;1.73;;;;;;;11.13;81.67;100339.63;5027886;28;20025;-75
2024/04/02 08:56:11;;;;;;;7.70;1.10;;;;;;;11.21;81.04;100341.41;5032495;28;20381;-75
2024/04/02 08:58:40;;;;;;;8.38;1.05;;;;;;;11.03;80.86;100359.81;5021063;28;20040;-75
2024/04/02 09:01:05;;;;;;;13.43;1.30;;;;;;;11.06;81.04;100362.88;5028866;28;20040;-75
2024/04/02 09:03:31;;;;;;;7.07;0.85;;;;;;;11.06;81.85;100362.88;5033035;28;20029;-75
2024/04/02 09:05:57;;;;;;;7.38;1.17;;;;;;;11.06;81.78;100369.88;5023893;28;20045;-75
2024/04/02 09:08:23;;;;;;;8.65;1.02;;;;;;;11.10;82.07;100371.94;5022285;28;20040;-75
2024/04/02 09:10:48;;;;;;;6.53;1.30;;;;;;;10.99;81.41;100371.50;5030574;28;20033;-75
2024/04/02 09:13:14;;;;;;;5.03;1.30;;;;;;;10.91;81.78;100377.53;5012658;28;20022;-74
2024/04/02 09:15:40;;;;;;;6.65;1.15;;;;;;;10.98;83.03;100375.91;5025947;28;20029;-75
2024/04/02 09:18:06;;;;;;;9.18;1.40;;;;;;;11.17;82.62;100376.44;5021881;28;20499;-75
2024/04/02 09:20:33;;;;;;;5.63;1.00;;;;;;;11.25;81.85;100373.81;5030345;28;20048;-76
2024/04/02 09:22:59;;;;;;;5.35;1.10;;;;;;;11.29;80.71;100373.28;5041475;28;20108;-75
2024/04/02 09:25:26;;;;;;;11.75;1.15;;;;;;;11.26;81.63;100385.81;5034575;28;20045;-76
2024/04/02 09:27:52;;;;;;;11.15;1.42;;;;;;;11.04;82.73;100384.78;5021413;28;20033;-75
2024/04/02 09:30:18;;;;;;;9.00;1.50;;;;;;;11.24;83.18;100392.94;5012417;28;20095;-74
2024/04/02 09:32:45;;;;;;;10.07;1.20;;;;;;;11.20;82.18;100378.72;5026847;28;20155;-75
2024/04/02 09:35:28;;;;;;;8.55;1.38;;;;;;;11.04;82.93;100384.78;5033235;28;20037;-74
2024/04/02 09:37:54;;;;;;;9.70;1.73;;;;;;;10.99;83.29;100381.88;5031835;28;20034;-76
2024/04/02 09:40:21;;;;;;;9.50;1.73;;;;;;;11.03;84.96;100386.56;5024757;28;20048;-75
2024/04/02 09:42:49;;;;;;;8.02;0.90;;;;;;;11.03;84.15;100394.34;5026026;28;20223;-75
2024/04/02 09:45:17;;;;;;;8.15;1.38;;;;;;;11.29;82.46;100391.47;5024884;28;20107;-75
2024/04/02 09:47:45;;;;;;;9.13;1.30;;;;;;;11.75;81.10;100390.69;5028692;28;20022;-74
2024/04/02 09:50:10;;;;;;;6.65;1.50;;;;;;;11.68;81.75;100390.59;5024033;28;20057;-75
2024/04/02 09:52:36;;;;;;;14.07;1.67;;;;;;;11.66;81.61;100386.56;5025316;28;20480;-76
2024/04/02 09:55:02;;;;;;;9.95;1.50;;;;;;;11.49;80.51;100397.03;5010287;28;20025;-76
2024/04/02 09:57:28;;;;;;;7.10;1.40;;;;;;;11.51;79.86;100394.28;5026728;28;20037;-77
2024/04/02 09:59:54;;;;;;;7.45;1.42;;;;;;;11.52;80.86;100392.47;5028772;28;20044;-75
2024/04/02 10:02:24;;;;;;;7.53;1.15;;;;;;;11.40;81.40;100392.06;5023482;28;20033;-75
2024/04/02 10:04:54;;;;;;;9.15;1.20;;;;;;;11.59;82.00;100385.63;5025501;28;20399;-76
2024/04/02 10:07:26;;;;;;;13.25;1.45;;;;;;;11.77;81.44;100383.56;5029599;28;20033;-75
2024/04/02 10:10:00;;;;;;;5.85;1.10;;;;;;;11.87;79.94;100378.91;5027516;28;20041;-75
2024/04/02 10:12:28;;;;;;;7.90;1.40;;;;;;;11.94;78.68;100384.28;5031038;28;20075;-75
2024/04/02 10:14:54;;;;;;;6.13;1.10;;;;;;;11.80;80.74;100382.38;5028215;28;20056;-76
2024/04/02 10:17:20;;;;;;;13.25;1.80;;;;;;;11.79;79.50;100384.19;5028912;28;20032;-75
2024/04/02 10:19:46;;;;;;;19.65;2.58;;;;;;;11.69;79.03;100381.00;5023295;28;20068;-75
2024/04/02 10:22:12;;;;;;;3.72;1.00;;;;;;;11.83;79.96;100369.88;5026571;28;20022;-75
2024/04/02 10:24:37;;;;;;;6.40;1.40;;;;;;;11.84;78.48;100376.66;5024994;28;20033;-74
2024/04/02 10:27:08;;;;;;;11.23;1.42;;;;;;;12.07;77.76;100375.84;5024585;28;20025;-76
2024/04/02 10:29:34;;;;;;;10.40;1.33;;;;;;;12.18;78.34;100374.63;5032964;28;20041;-75
2024/04/02 10:32:00;;;;;;;7.13;1.33;;;;;;;12.19;80.11;100382.25;5029849;28;20030;-75
2024/04/02 10:34:26;;;;;;;7.75;1.50;;;;;;;12.18;80.01;100375.44;5032381;28;20065;-75
2024/04/02 10:36:51;;;;;;;5.90;1.38;;;;;;;12.23;80.07;100399.13;5022329;28;20053;-74
2024/04/02 10:39:17;;;;;;;10.75;1.70;;;;;;;12.06;81.67;100389.84;5026610;28;20044;-75
2024/04/02 10:41:46;;;;;;;10.40;1.30;;;;;;;12.25;82.42;100385.94;5029079;28;20121;-75
2024/04/02 10:44:17;;;;;;;12.82;1.50;;;;;;;12.37;84.34;100397.50;5025318;28;20037;-76
2024/04/02 10:46:42;;;;;;;10.25;1.52;;;;;;;12.30;83.43;100394.03;5024552;28;20043;-75
2024/04/02 10:49:08;;;;;;;9.60;1.30;;;;;;;12.39;82.63;100392.13;5008126;28;20384;-76
2024/04/02 10:51:33;;;;;;;13.73;1.73;;;;;;;12.31;84.81;100398.22;5022452;28;20533;-76
2024/04/02 10:53:59;;;;;;;16.83;1.95;;;;;;;12.32;86.44;100394.66;5029588;28;20479;-76
2024/04/02 10:56:30;;;;;;;9.75;1.48;;;;;;;12.14;86.62;100394.97;5017851;28;20041;-75
2024/04/02 10:58:56;;;;;;;10.57;2.08;;;;;;;11.96;88.70;100413.47;5002463;28;20036;-74
2024/04/02 11:01:22;;;;;;;8.75;1.55;;;;;;;11.65;93.53;100406.50;5011247;28;20396;-76
2024/04/02 11:03:53;;;;;;;9.18;1.33;;;;;;;11.53;95.63;100407.06;5021618;28;20049;-76
2024/04/02 11:06:19;;;;;;;6.70;1.25;;;;;;;11.69;95.49;100399.97;5022537;28;20047;-75
2024/04/02 11:08:48;;;;;;;10.68;1.60;;;;;;;11.80;94.62;100395.38;5017576;28;20037;-76
2024/04/02 11:11:23;;;;;;;9.98;2.05;;;;;;;11.95;94.13;100400.66;5020113;28;20092;-75
2024/04/02 11:13:49;;;;;;;10.25;1.35;;;;;;;12.22;91.48;100399.28;5024054;28;20025;-75
2024/04/02 11:16:16;;;;;;;12.27;1.55;;;;;;;12.27;88.56;100399.56;5025518;28;20033;-75
2024/04/02 11:18:41;;;;;;;5.18;1.08;;;;;;;12.43;90.28;100393.41;5027296;28;20475;-75